sensor_id;sensor_type;location;lat;lon;timestamp;P1;durP1;ratioP1;P2;durP2;ratioP2
31974;SDS011;18500;43.618;1.474;2023-02-01T05:43:42;650.72;;;602.42;;
31974;SDS011;18500;43.618;1.474;2023-02-01T05:46:08;716.28;;;661.35;;
31974;SDS011;18500;43.618;1.474;2023-02-01T05:48:38;535.00;;;496.85;;
31974;SDS011;18500;43.618;1.474;2023-02-01T05:51:04;464.25;;;434.20;;
31974;SDS011;18500;43.618;1.474;2023-02-01T05:53:30;582.17;;;539.10;;
31974;SDS011;18500;43.618;1.474;2023-02-01T05:55:56;474.25;;;442.52;;
31974;SDS011;18500;43.618;1.474;2023-02-01T05:58:21;573.83;;;535.28;;
31974;SDS011;18500;43.618;1.474;2023-02-01T06:00:47;412.10;;;382.23;;
31974;SDS011;18500;43.618;1.474;2023-02-01T06:03:13;571.55;;;529.17;;
31974;SDS011;18500;43.618;1.474;2023-02-01T06:05:38;436.48;;;407.70;;
31974;SDS011;18500;43.618;1.474;2023-02-01T06:08:04;488.05;;;454.13;;
31974;SDS011;18500;43.618;1.474;2023-02-01T06:10:32;482.10;;;448.95;;
31974;SDS011;18500;43.618;1.474;2023-02-01T06:12:58;457.65;;;425.23;;
31974;SDS011;18500;43.618;1.474;2023-02-01T06:15:24;487.27;;;452.60;;
31974;SDS011;18500;43.618;1.474;2023-02-01T06:17:50;609.78;;;567.35;;
31974;SDS011;18500;43.618;1.474;2023-02-01T06:20:15;334.38;;;311.85;;
31974;SDS011;18500;43.618;1.474;2023-02-01T06:22:41;239.45;;;223.40;;
31974;SDS011;18500;43.618;1.474;2023-02-01T06:25:08;596.55;;;548.00;;
31974;SDS011;18500;43.618;1.474;2023-02-01T06:27:35;491.98;;;455.60;;
31974;SDS011;18500;43.618;1.474;2023-02-01T06:30:01;531.38;;;492.23;;
31974;SDS011;18500;43.618;1.474;2023-02-01T06:32:28;548.22;;;511.83;;
31974;SDS011;18500;43.618;1.474;2023-02-01T06:34:54;473.15;;;438.42;;
31974;SDS011;18500;43.618;1.474;2023-02-01T06:37:21;640.30;;;580.20;;
31974;SDS011;18500;43.618;1.474;2023-02-01T06:39:48;707.17;;;650.88;;
31974;SDS011;18500;43.618;1.474;2023-02-01T06:42:14;518.05;;;482.60;;
31974;SDS011;18500;43.618;1.474;2023-02-01T06:44:39;507.33;;;470.50;;
31974;SDS011;18500;43.618;1.474;2023-02-01T06:47:05;554.00;;;516.90;;
31974;SDS011;18500;43.618;1.474;2023-02-01T06:49:31;487.25;;;453.40;;
31974;SDS011;18500;43.618;1.474;2023-02-01T06:51:56;408.70;;;380.23;;
31974;SDS011;18500;43.618;1.474;2023-02-01T06:54:25;622.58;;;570.63;;
31974;SDS011;18500;43.618;1.474;2023-02-01T06:56:51;532.40;;;495.48;;
31974;SDS011;18500;43.618;1.474;2023-02-01T06:59:17;452.33;;;420.35;;
31974;SDS011;18500;43.618;1.474;2023-02-01T07:01:42;391.90;;;365.75;;
31974;SDS011;18500;43.618;1.474;2023-02-01T07:04:09;380.67;;;355.25;;
31974;SDS011;18500;43.618;1.474;2023-02-01T07:06:36;377.17;;;353.25;;
31974;SDS011;18500;43.618;1.474;2023-02-01T07:09:01;412.98;;;386.45;;
31974;SDS011;18500;43.618;1.474;2023-02-01T07:11:27;361.98;;;338.40;;
31974;SDS011;18500;43.618;1.474;2023-02-01T07:13:53;344.33;;;321.55;;
31974;SDS011;18500;43.618;1.474;2023-02-01T07:16:19;437.95;;;408.00;;
31974;SDS011;18500;43.618;1.474;2023-02-01T07:18:45;514.67;;;480.83;;
31974;SDS011;18500;43.618;1.474;2023-02-01T07:21:12;465.92;;;436.48;;
31974;SDS011;18500;43.618;1.474;2023-02-01T07:23:37;437.30;;;408.65;;
31974;SDS011;18500;43.618;1.474;2023-02-01T07:26:04;579.60;;;539.88;;
31974;SDS011;18500;43.618;1.474;2023-02-01T07:28:31;523.03;;;487.67;;
31974;SDS011;18500;43.618;1.474;2023-02-01T07:31:05;501.17;;;467.75;;
31974;SDS011;18500;43.618;1.474;2023-02-01T07:33:33;553.55;;;513.90;;
31974;SDS011;18500;43.618;1.474;2023-02-01T07:36:00;429.95;;;401.13;;
31974;SDS011;18500;43.618;1.474;2023-02-01T07:38:27;511.23;;;476.52;;
31974;SDS011;18500;43.618;1.474;2023-02-01T07:40:57;524.80;;;487.92;;
31974;SDS011;18500;43.618;1.474;2023-02-01T07:43:24;424.27;;;394.45;;
31974;SDS011;18500;43.618;1.474;2023-02-01T07:45:51;468.73;;;435.90;;
31974;SDS011;18500;43.618;1.474;2023-02-01T07:48:17;542.15;;;502.73;;
31974;SDS011;18500;43.618;1.474;2023-02-01T07:50:43;492.20;;;455.60;;
31974;SDS011;18500;43.618;1.474;2023-02-01T07:53:09;748.03;;;694.72;;
31974;SDS011;18500;43.618;1.474;2023-02-01T07:55:37;541.08;;;501.98;;
31974;SDS011;18500;43.618;1.474;2023-02-01T07:58:03;353.45;;;330.88;;
31974;SDS011;18500;43.618;1.474;2023-02-01T08:00:29;367.45;;;344.25;;
31974;SDS011;18500;43.618;1.474;2023-02-01T08:03:13;510.85;;;479.27;;
31974;SDS011;18500;43.618;1.474;2023-02-01T08:05:38;578.75;;;541.25;;
31974;SDS011;18500;43.618;1.474;2023-02-01T08:08:04;449.15;;;419.85;;
31974;SDS011;18500;43.618;1.474;2023-02-01T08:10:31;533.88;;;494.33;;
31974;SDS011;18500;43.618;1.474;2023-02-01T08:12:59;385.50;;;360.65;;
31974;SDS011;18500;43.618;1.474;2023-02-01T08:15:27;458.58;;;430.40;;
31974;SDS011;18500;43.618;1.474;2023-02-01T08:17:53;516.60;;;482.50;;
31974;SDS011;18500;43.618;1.474;2023-02-01T08:20:20;506.30;;;475.10;;
31974;SDS011;18500;43.618;1.474;2023-02-01T08:22:52;513.28;;;480.42;;
31974;SDS011;18500;43.618;1.474;2023-02-01T08:25:18;396.17;;;371.90;;
31974;SDS011;18500;43.618;1.474;2023-02-01T08:27:44;453.30;;;425.00;;
31974;SDS011;18500;43.618;1.474;2023-02-01T08:30:10;424.50;;;398.45;;
31974;SDS011;18500;43.618;1.474;2023-02-01T08:32:36;362.10;;;340.23;;
31974;SDS011;18500;43.618;1.474;2023-02-01T08:35:03;456.23;;;428.20;;
31974;SDS011;18500;43.618;1.474;2023-02-01T08:37:29;487.23;;;455.90;;
31974;SDS011;18500;43.618;1.474;2023-02-01T08:39:54;506.63;;;475.50;;
31974;SDS011;18500;43.618;1.474;2023-02-01T08:42:20;529.22;;;496.67;;
31974;SDS011;18500;43.618;1.474;2023-02-01T08:45:05;495.83;;;465.00;;
31974;SDS011;18500;43.618;1.474;2023-02-01T08:47:33;469.38;;;440.83;;
31974;SDS011;18500;43.618;1.474;2023-02-01T08:49:58;484.40;;;450.15;;
31974;SDS011;18500;43.618;1.474;2023-02-01T08:52:24;550.47;;;510.25;;
31974;SDS011;18500;43.618;1.474;2023-02-01T08:54:50;298.33;;;278.35;;
31974;SDS011;18500;43.618;1.474;2023-02-01T08:57:16;498.77;;;466.33;;
31974;SDS011;18500;43.618;1.474;2023-02-01T08:59:42;435.35;;;407.33;;
31974;SDS011;18500;43.618;1.474;2023-02-01T09:02:12;360.52;;;337.65;;
31974;SDS011;18500;43.618;1.474;2023-02-01T09:07:07;777.17;;;718.28;;
31974;SDS011;18500;43.618;1.474;2023-02-01T09:09:36;776.05;;;714.75;;
31974;SDS011;18500;43.618;1.474;2023-02-01T09:12:01;554.42;;;514.42;;
31974;SDS011;18500;43.618;1.474;2023-02-01T09:14:28;614.72;;;568.45;;
31974;SDS011;18500;43.618;1.474;2023-02-01T09:16:54;739.50;;;681.53;;
31974;SDS011;18500;43.618;1.474;2023-02-01T09:19:20;699.42;;;648.85;;
31974;SDS011;18500;43.618;1.474;2023-02-01T09:21:46;366.83;;;344.17;;
31974;SDS011;18500;43.618;1.474;2023-02-01T09:24:11;742.00;;;685.17;;
31974;SDS011;18500;43.618;1.474;2023-02-01T09:26:37;868.40;;;790.55;;
31974;SDS011;18500;43.618;1.474;2023-02-01T09:29:03;847.60;;;771.40;;
31974;SDS011;18500;43.618;1.474;2023-02-01T09:31:31;752.35;;;686.80;;
31974;SDS011;18500;43.618;1.474;2023-02-01T09:33:57;797.83;;;722.42;;
31974;SDS011;18500;43.618;1.474;2023-02-01T09:36:23;637.42;;;585.90;;
31974;SDS011;18500;43.618;1.474;2023-02-01T09:38:49;369.95;;;342.23;;
31974;SDS011;18500;43.618;1.474;2023-02-01T09:46:58;845.67;;;777.90;;
31974;SDS011;18500;43.618;1.474;2023-02-01T09:49:32;872.38;;;806.50;;
31974;SDS011;18500;43.618;1.474;2023-02-01T09:52:01;728.25;;;676.20;;
31974;SDS011;18500;43.618;1.474;2023-02-01T09:54:40;904.47;;;835.10;;
31974;SDS011;18500;43.618;1.474;2023-02-01T09:57:16;1001.17;;;915.28;;
31974;SDS011;18500;43.618;1.474;2023-02-01T09:59:48;935.72;;;856.20;;
31974;SDS011;18500;43.618;1.474;2023-02-01T10:02:18;897.88;;;827.83;;
31974;SDS011;18500;43.618;1.474;2023-02-01T10:04:47;989.15;;;907.60;;
31974;SDS011;18500;43.618;1.474;2023-02-01T10:09:44;807.80;;;749.13;;
31974;SDS011;18500;43.618;1.474;2023-02-01T10:21:08;796.25;;;731.83;;
31974;SDS011;18500;43.618;1.474;2023-02-01T10:26:40;875.78;;;810.17;;
31974;SDS011;18500;43.618;1.474;2023-02-01T10:29:20;849.22;;;781.33;;
31974;SDS011;18500;43.618;1.474;2023-02-01T10:31:50;913.08;;;833.72;;
31974;SDS011;18500;43.618;1.474;2023-02-01T10:34:18;981.53;;;891.05;;
31974;SDS011;18500;43.618;1.474;2023-02-01T10:37:52;950.95;;;864.60;;
31974;SDS011;18500;43.618;1.474;2023-02-01T10:39:57;963.65;;;877.88;;
31974;SDS011;18500;43.618;1.474;2023-02-01T10:42:37;782.42;;;720.47;;
31974;SDS011;18500;43.618;1.474;2023-02-01T10:45:05;696.33;;;643.78;;
31974;SDS011;18500;43.618;1.474;2023-02-01T10:47:31;743.42;;;684.35;;
31974;SDS011;18500;43.618;1.474;2023-02-01T10:55:46;905.63;;;829.60;;
31974;SDS011;18500;43.618;1.474;2023-02-01T10:58:25;958.10;;;872.58;;
31974;SDS011;18500;43.618;1.474;2023-02-01T11:06:33;757.95;;;702.83;;
31974;SDS011;18500;43.618;1.474;2023-02-01T11:09:22;782.28;;;719.38;;
31974;SDS011;18500;43.618;1.474;2023-02-01T11:14:16;693.38;;;639.40;;
31974;SDS011;18500;43.618;1.474;2023-02-01T11:16:52;572.22;;;529.25;;
31974;SDS011;18500;43.618;1.474;2023-02-01T11:19:47;649.85;;;599.75;;
31974;SDS011;18500;43.618;1.474;2023-02-01T11:22:21;648.83;;;597.83;;
31974;SDS011;18500;43.618;1.474;2023-02-01T11:24:49;641.42;;;590.60;;
31974;SDS011;18500;43.618;1.474;2023-02-01T11:27:16;731.42;;;675.10;;
31974;SDS011;18500;43.618;1.474;2023-02-01T11:29:44;725.28;;;668.60;;
31974;SDS011;18500;43.618;1.474;2023-02-01T11:32:13;673.83;;;617.42;;
31974;SDS011;18500;43.618;1.474;2023-02-01T11:34:43;621.55;;;574.67;;
31974;SDS011;18500;43.618;1.474;2023-02-01T11:37:40;691.33;;;639.67;;
31974;SDS011;18500;43.618;1.474;2023-02-01T11:47:52;761.60;;;702.53;;
31974;SDS011;18500;43.618;1.474;2023-02-01T11:50:20;783.30;;;722.33;;
31974;SDS011;18500;43.618;1.474;2023-02-01T11:54:12;778.25;;;717.70;;
31974;SDS011;18500;43.618;1.474;2023-02-01T12:07:54;818.30;;;751.17;;
31974;SDS011;18500;43.618;1.474;2023-02-01T12:21:42;967.75;;;881.40;;
31974;SDS011;18500;43.618;1.474;2023-02-01T12:32:57;927.22;;;848.72;;
31974;SDS011;18500;43.618;1.474;2023-02-01T12:46:26;801.30;;;733.85;;
31974;SDS011;18500;43.618;1.474;2023-02-01T12:48:59;686.83;;;633.55;;
31974;SDS011;18500;43.618;1.474;2023-02-01T12:51:42;769.65;;;703.20;;
31974;SDS011;18500;43.618;1.474;2023-02-01T12:54:12;738.60;;;674.80;;
31974;SDS011;18500;43.618;1.474;2023-02-01T12:56:51;1075.35;;;963.60;;
31974;SDS011;18500;43.618;1.474;2023-02-01T13:07:39;932.25;;;847.65;;
31974;SDS011;18500;43.618;1.474;2023-02-01T13:10:36;992.10;;;901.80;;
31974;SDS011;18500;43.618;1.474;2023-02-01T13:13:14;1080.00;;;971.80;;
31974;SDS011;18500;43.618;1.474;2023-02-01T13:16:16;920.97;;;844.38;;
31974;SDS011;18500;43.618;1.474;2023-02-01T13:18:48;997.67;;;909.05;;
31974;SDS011;18500;43.618;1.474;2023-02-01T13:21:18;905.58;;;830.83;;
31974;SDS011;18500;43.618;1.474;2023-02-01T13:23:55;990.58;;;905.58;;
31974;SDS011;18500;43.618;1.474;2023-02-01T13:26:21;829.97;;;767.22;;
31974;SDS011;18500;43.618;1.474;2023-02-01T13:29:00;662.92;;;617.05;;
31974;SDS011;18500;43.618;1.474;2023-02-01T13:42:58;755.53;;;694.03;;
31974;SDS011;18500;43.618;1.474;2023-02-01T13:45:30;925.28;;;851.50;;
31974;SDS011;18500;43.618;1.474;2023-02-01T13:50:36;762.40;;;709.75;;
31974;SDS011;18500;43.618;1.474;2023-02-01T13:55:40;887.87;;;819.57;;
31974;SDS011;18500;43.618;1.474;2023-02-01T14:00:46;917.70;;;844.80;;
31974;SDS011;18500;43.618;1.474;2023-02-01T14:03:14;839.83;;;777.42;;
31974;SDS011;18500;43.618;1.474;2023-02-01T14:06:02;826.30;;;766.05;;
31974;SDS011;18500;43.618;1.474;2023-02-01T14:08:39;906.97;;;834.78;;
31974;SDS011;18500;43.618;1.474;2023-02-01T14:11:06;955.08;;;876.33;;
31974;SDS011;18500;43.618;1.474;2023-02-01T14:13:51;814.65;;;754.25;;
31974;SDS011;18500;43.618;1.474;2023-02-01T14:16:17;895.70;;;825.08;;
31974;SDS011;18500;43.618;1.474;2023-02-01T14:21:30;948.10;;;869.80;;
31974;SDS011;18500;43.618;1.474;2023-02-01T14:26:48;827.90;;;765.93;;
31974;SDS011;18500;43.618;1.474;2023-02-01T14:34:31;952.00;;;874.38;;
31974;SDS011;18500;43.618;1.474;2023-02-01T14:42:19;998.60;;;915.03;;
31974;SDS011;18500;43.618;1.474;2023-02-01T14:44:51;838.38;;;772.47;;
31974;SDS011;18500;43.618;1.474;2023-02-01T14:49:56;1005.70;;;916.95;;
31974;SDS011;18500;43.618;1.474;2023-02-01T14:52:32;1011.95;;;921.75;;
31974;SDS011;18500;43.618;1.474;2023-02-01T14:55:11;998.58;;;911.50;;
31974;SDS011;18500;43.618;1.474;2023-02-01T14:57:55;998.97;;;911.72;;
31974;SDS011;18500;43.618;1.474;2023-02-01T15:00:28;996.58;;;908.53;;
31974;SDS011;18500;43.618;1.474;2023-02-01T15:03:00;1038.95;;;942.85;;
31974;SDS011;18500;43.618;1.474;2023-02-01T15:05:42;1024.72;;;932.28;;
31974;SDS011;18500;43.618;1.474;2023-02-01T15:08:14;1018.05;;;920.90;;
31974;SDS011;18500;43.618;1.474;2023-02-01T15:10:44;1008.67;;;918.40;;
31974;SDS011;18500;43.618;1.474;2023-02-01T15:13:17;1029.95;;;932.70;;
31974;SDS011;18500;43.618;1.474;2023-02-01T15:16:05;942.78;;;864.92;;
31974;SDS011;18500;43.618;1.474;2023-02-01T15:18:38;1002.95;;;914.63;;
31974;SDS011;18500;43.618;1.474;2023-02-01T15:21:04;969.05;;;884.80;;
31974;SDS011;18500;43.618;1.474;2023-02-01T15:23:31;993.15;;;906.30;;
31974;SDS011;18500;43.618;1.474;2023-02-01T15:25:57;999.03;;;903.75;;
31974;SDS011;18500;43.618;1.474;2023-02-01T15:28:24;994.35;;;896.00;;
31974;SDS011;18500;43.618;1.474;2023-02-01T15:30:52;919.55;;;837.35;;
31974;SDS011;18500;43.618;1.474;2023-02-01T15:33:18;948.33;;;870.28;;
31974;SDS011;18500;43.618;1.474;2023-02-01T15:43:31;1018.30;;;925.85;;
31974;SDS011;18500;43.618;1.474;2023-02-01T15:46:01;950.80;;;870.08;;
31974;SDS011;18500;43.618;1.474;2023-02-01T15:48:32;981.42;;;894.83;;
31974;SDS011;18500;43.618;1.474;2023-02-01T15:51:03;909.95;;;833.30;;
31974;SDS011;18500;43.618;1.474;2023-02-01T15:53:29;922.40;;;841.13;;
31974;SDS011;18500;43.618;1.474;2023-02-01T15:56:00;916.30;;;838.40;;
31974;SDS011;18500;43.618;1.474;2023-02-01T15:58:28;946.60;;;862.88;;
31974;SDS011;18500;43.618;1.474;2023-02-01T16:00:55;921.17;;;840.67;;
31974;SDS011;18500;43.618;1.474;2023-02-01T16:03:28;933.55;;;849.78;;
31974;SDS011;18500;43.618;1.474;2023-02-01T16:05:58;933.47;;;849.45;;
31974;SDS011;18500;43.618;1.474;2023-02-01T16:08:26;927.80;;;846.65;;
31974;SDS011;18500;43.618;1.474;2023-02-01T16:10:54;838.20;;;770.88;;
31974;SDS011;18500;43.618;1.474;2023-02-01T16:13:27;933.38;;;855.33;;
31974;SDS011;18500;43.618;1.474;2023-02-01T16:15:52;854.05;;;783.22;;
31974;SDS011;18500;43.618;1.474;2023-02-01T16:18:18;890.17;;;815.60;;
31974;SDS011;18500;43.618;1.474;2023-02-01T16:20:44;764.17;;;706.55;;
31974;SDS011;18500;43.618;1.474;2023-02-01T16:23:12;874.40;;;800.67;;
31974;SDS011;18500;43.618;1.474;2023-02-01T16:25:38;843.03;;;773.55;;
31974;SDS011;18500;43.618;1.474;2023-02-01T16:28:04;827.83;;;762.03;;
31974;SDS011;18500;43.618;1.474;2023-02-01T16:30:30;825.75;;;760.40;;
31974;SDS011;18500;43.618;1.474;2023-02-01T16:32:57;744.88;;;685.80;;
31974;SDS011;18500;43.618;1.474;2023-02-01T16:35:25;712.83;;;656.10;;
31974;SDS011;18500;43.618;1.474;2023-02-01T16:38:00;889.90;;;816.00;;
31974;SDS011;18500;43.618;1.474;2023-02-01T16:40:37;768.28;;;707.60;;
31974;SDS011;18500;43.618;1.474;2023-02-01T16:43:05;905.40;;;829.83;;
31974;SDS011;18500;43.618;1.474;2023-02-01T16:45:37;826.75;;;761.10;;
31974;SDS011;18500;43.618;1.474;2023-02-01T16:48:05;894.78;;;820.55;;
31974;SDS011;18500;43.618;1.474;2023-02-01T16:50:31;862.45;;;791.15;;
31974;SDS011;18500;43.618;1.474;2023-02-01T16:52:58;821.35;;;755.50;;
31974;SDS011;18500;43.618;1.474;2023-02-01T16:55:24;925.50;;;848.83;;
31974;SDS011;18500;43.618;1.474;2023-02-01T16:57:50;765.60;;;705.92;;
31974;SDS011;18500;43.618;1.474;2023-02-01T17:00:16;807.58;;;741.38;;
31974;SDS011;18500;43.618;1.474;2023-02-01T17:02:42;800.08;;;735.20;;
31974;SDS011;18500;43.618;1.474;2023-02-01T17:05:10;602.85;;;563.20;;
31974;SDS011;18500;43.618;1.474;2023-02-01T17:07:36;866.75;;;796.53;;
31974;SDS011;18500;43.618;1.474;2023-02-01T17:10:04;880.47;;;809.88;;
31974;SDS011;18500;43.618;1.474;2023-02-01T17:12:31;880.50;;;810.78;;
31974;SDS011;18500;43.618;1.474;2023-02-01T17:14:58;817.55;;;756.03;;
31974;SDS011;18500;43.618;1.474;2023-02-01T17:17:35;801.13;;;740.22;;
31974;SDS011;18500;43.618;1.474;2023-02-01T17:20:02;744.10;;;688.92;;
31974;SDS011;18500;43.618;1.474;2023-02-01T17:22:28;728.15;;;672.30;;
31974;SDS011;18500;43.618;1.474;2023-02-01T17:24:54;686.72;;;634.35;;
31974;SDS011;18500;43.618;1.474;2023-02-01T17:27:20;706.33;;;653.22;;
31974;SDS011;18500;43.618;1.474;2023-02-01T17:29:45;772.17;;;714.20;;
31974;SDS011;18500;43.618;1.474;2023-02-01T17:32:17;781.45;;;721.80;;
31974;SDS011;18500;43.618;1.474;2023-02-01T17:34:46;878.70;;;809.80;;
31974;SDS011;18500;43.618;1.474;2023-02-01T17:37:20;848.95;;;783.30;;
31974;SDS011;18500;43.618;1.474;2023-02-01T17:39:49;739.38;;;683.08;;
31974;SDS011;18500;43.618;1.474;2023-02-01T17:42:21;738.58;;;678.92;;
31974;SDS011;18500;43.618;1.474;2023-02-01T17:44:48;860.65;;;785.10;;
31974;SDS011;18500;43.618;1.474;2023-02-01T17:47:16;841.38;;;771.38;;
31974;SDS011;18500;43.618;1.474;2023-02-01T17:49:41;822.53;;;758.03;;
31974;SDS011;18500;43.618;1.474;2023-02-01T17:52:09;873.22;;;803.80;;
31974;SDS011;18500;43.618;1.474;2023-02-01T17:54:41;887.72;;;817.63;;
31974;SDS011;18500;43.618;1.474;2023-02-01T17:57:12;886.20;;;817.83;;
31974;SDS011;18500;43.618;1.474;2023-02-01T17:59:38;904.05;;;832.47;;
31974;SDS011;18500;43.618;1.474;2023-02-01T18:02:11;961.42;;;882.78;;
31974;SDS011;18500;43.618;1.474;2023-02-01T18:04:42;860.03;;;790.97;;
31974;SDS011;18500;43.618;1.474;2023-02-01T18:07:08;914.42;;;836.10;;
31974;SDS011;18500;43.618;1.474;2023-02-01T18:09:34;954.17;;;876.35;;
31974;SDS011;18500;43.618;1.474;2023-02-01T18:12:00;918.40;;;844.10;;
31974;SDS011;18500;43.618;1.474;2023-02-01T18:14:28;705.08;;;655.42;;
31974;SDS011;18500;43.618;1.474;2023-02-01T18:16:54;783.58;;;727.80;;
31974;SDS011;18500;43.618;1.474;2023-02-01T18:19:20;733.47;;;681.28;;
31974;SDS011;18500;43.618;1.474;2023-02-01T18:21:45;636.10;;;591.10;;
31974;SDS011;18500;43.618;1.474;2023-02-01T18:24:11;966.30;;;876.30;;
31974;SDS011;18500;43.618;1.474;2023-02-01T18:26:38;1155.93;;;999.90;;
31974;SDS011;18500;43.618;1.474;2023-02-01T18:29:04;1272.60;;;999.90;;
31974;SDS011;18500;43.618;1.474;2023-02-01T18:31:30;1100.57;;;990.63;;
31974;SDS011;18500;43.618;1.474;2023-02-01T18:33:57;1168.70;;;999.90;;
31974;SDS011;18500;43.618;1.474;2023-02-01T18:36:24;1001.10;;;908.42;;
31974;SDS011;18500;43.618;1.474;2023-02-01T18:38:50;816.13;;;745.67;;
31974;SDS011;18500;43.618;1.474;2023-02-01T18:41:18;1062.00;;;947.50;;
31974;SDS011;18500;43.618;1.474;2023-02-01T18:43:45;801.90;;;735.03;;
31974;SDS011;18500;43.618;1.474;2023-02-01T18:46:12;564.30;;;526.78;;
31974;SDS011;18500;43.618;1.474;2023-02-01T18:48:38;658.92;;;611.28;;
31974;SDS011;18500;43.618;1.474;2023-02-01T18:51:04;534.15;;;496.38;;
31974;SDS011;18500;43.618;1.474;2023-02-01T18:53:31;680.63;;;629.03;;
31974;SDS011;18500;43.618;1.474;2023-02-01T18:55:57;804.80;;;741.10;;
31974;SDS011;18500;43.618;1.474;2023-02-01T18:58:23;901.92;;;830.50;;
31974;SDS011;18500;43.618;1.474;2023-02-01T19:00:51;666.53;;;622.30;;
31974;SDS011;18500;43.618;1.474;2023-02-01T19:03:17;728.90;;;676.13;;
31974;SDS011;18500;43.618;1.474;2023-02-01T19:05:45;689.92;;;641.97;;
31974;SDS011;18500;43.618;1.474;2023-02-01T19:08:11;784.53;;;730.80;;
31974;SDS011;18500;43.618;1.474;2023-02-01T19:10:37;831.97;;;774.25;;
31974;SDS011;18500;43.618;1.474;2023-02-01T19:13:05;761.72;;;709.03;;
31974;SDS011;18500;43.618;1.474;2023-02-01T19:15:31;726.67;;;678.35;;
31974;SDS011;18500;43.618;1.474;2023-02-01T19:17:59;718.67;;;671.55;;
31974;SDS011;18500;43.618;1.474;2023-02-01T19:20:26;803.55;;;747.72;;
31974;SDS011;18500;43.618;1.474;2023-02-01T19:22:52;799.22;;;742.35;;
31974;SDS011;18500;43.618;1.474;2023-02-01T19:25:22;926.92;;;854.83;;
31974;SDS011;18500;43.618;1.474;2023-02-01T19:27:53;868.97;;;802.85;;
31974;SDS011;18500;43.618;1.474;2023-02-01T19:30:20;889.85;;;823.33;;
31974;SDS011;18500;43.618;1.474;2023-02-01T19:32:47;794.60;;;736.13;;
31974;SDS011;18500;43.618;1.474;2023-02-01T19:35:14;732.13;;;678.53;;
31974;SDS011;18500;43.618;1.474;2023-02-01T19:37:43;729.10;;;677.72;;
31974;SDS011;18500;43.618;1.474;2023-02-01T19:40:10;695.35;;;643.15;;
31974;SDS011;18500;43.618;1.474;2023-02-01T19:42:38;560.50;;;521.20;;
31974;SDS011;18500;43.618;1.474;2023-02-01T19:45:05;564.92;;;524.42;;
31974;SDS011;18500;43.618;1.474;2023-02-01T19:47:31;505.17;;;466.10;;
31974;SDS011;18500;43.618;1.474;2023-02-01T19:49:57;690.95;;;636.08;;
31974;SDS011;18500;43.618;1.474;2023-02-01T19:52:22;531.25;;;493.55;;
31974;SDS011;18500;43.618;1.474;2023-02-01T19:54:49;775.80;;;714.75;;
31974;SDS011;18500;43.618;1.474;2023-02-01T19:57:14;754.28;;;695.70;;
31974;SDS011;18500;43.618;1.474;2023-02-01T19:59:40;521.60;;;486.08;;
31974;SDS011;18500;43.618;1.474;2023-02-01T20:02:06;655.53;;;608.65;;
31974;SDS011;18500;43.618;1.474;2023-02-01T20:04:33;690.95;;;642.03;;
31974;SDS011;18500;43.618;1.474;2023-02-01T20:06:58;758.50;;;704.38;;
31974;SDS011;18500;43.618;1.474;2023-02-01T20:09:25;715.38;;;664.38;;
31974;SDS011;18500;43.618;1.474;2023-02-01T20:11:56;627.67;;;584.17;;
31974;SDS011;18500;43.618;1.474;2023-02-01T20:14:25;749.13;;;696.33;;
31974;SDS011;18500;43.618;1.474;2023-02-01T20:16:52;736.67;;;683.08;;
31974;SDS011;18500;43.618;1.474;2023-02-01T20:19:18;730.45;;;679.53;;
31974;SDS011;18500;43.618;1.474;2023-02-01T20:21:44;776.83;;;722.83;;
31974;SDS011;18500;43.618;1.474;2023-02-01T20:24:13;769.70;;;715.22;;
31974;SDS011;18500;43.618;1.474;2023-02-01T20:26:42;773.33;;;717.80;;
31974;SDS011;18500;43.618;1.474;2023-02-01T20:29:08;834.58;;;773.42;;
31974;SDS011;18500;43.618;1.474;2023-02-01T20:31:35;822.35;;;761.90;;
31974;SDS011;18500;43.618;1.474;2023-02-01T20:34:01;831.08;;;769.63;;
31974;SDS011;18500;43.618;1.474;2023-02-01T20:36:27;777.05;;;719.85;;
31974;SDS011;18500;43.618;1.474;2023-02-01T20:38:55;852.95;;;789.38;;
31974;SDS011;18500;43.618;1.474;2023-02-01T20:41:21;819.78;;;757.75;;
31974;SDS011;18500;43.618;1.474;2023-02-01T20:43:48;835.03;;;770.83;;
31974;SDS011;18500;43.618;1.474;2023-02-01T20:46:14;778.40;;;719.53;;
31974;SDS011;18500;43.618;1.474;2023-02-01T20:48:41;687.83;;;636.47;;
31974;SDS011;18500;43.618;1.474;2023-02-01T20:51:11;869.72;;;801.63;;
31974;SDS011;18500;43.618;1.474;2023-02-01T20:53:38;953.13;;;877.42;;
31974;SDS011;18500;43.618;1.474;2023-02-01T20:56:04;892.85;;;824.72;;
31974;SDS011;18500;43.618;1.474;2023-02-01T20:58:31;914.80;;;842.47;;
31974;SDS011;18500;43.618;1.474;2023-02-01T21:00:59;579.45;;;539.67;;
31974;SDS011;18500;43.618;1.474;2023-02-01T21:03:25;714.90;;;657.97;;
31974;SDS011;18500;43.618;1.474;2023-02-01T21:05:52;510.02;;;476.05;;
31974;SDS011;18500;43.618;1.474;2023-02-01T21:08:19;639.28;;;592.60;;
31974;SDS011;18500;43.618;1.474;2023-02-01T21:10:58;666.47;;;617.83;;
31974;SDS011;18500;43.618;1.474;2023-02-01T21:13:32;789.45;;;725.58;;
31974;SDS011;18500;43.618;1.474;2023-02-01T21:16:00;912.72;;;836.60;;
31974;SDS011;18500;43.618;1.474;2023-02-01T21:18:27;771.35;;;715.30;;
31974;SDS011;18500;43.618;1.474;2023-02-01T21:20:53;493.70;;;459.88;;
31974;SDS011;18500;43.618;1.474;2023-02-01T21:23:19;323.48;;;298.65;;
31974;SDS011;18500;43.618;1.474;2023-02-01T21:25:44;541.80;;;499.20;;
31974;SDS011;18500;43.618;1.474;2023-02-01T21:28:10;663.05;;;611.78;;
31974;SDS011;18500;43.618;1.474;2023-02-01T21:30:37;612.05;;;562.92;;
31974;SDS011;18500;43.618;1.474;2023-02-01T21:33:03;542.63;;;502.25;;
31974;SDS011;18500;43.618;1.474;2023-02-01T21:35:29;687.78;;;640.70;;
31974;SDS011;18500;43.618;1.474;2023-02-01T21:37:55;813.15;;;747.03;;
31974;SDS011;18500;43.618;1.474;2023-02-01T21:40:21;853.45;;;763.08;;
31974;SDS011;18500;43.618;1.474;2023-02-01T21:42:47;992.97;;;866.97;;
31974;SDS011;18500;43.618;1.474;2023-02-01T21:45:13;803.10;;;729.60;;
31974;SDS011;18500;43.618;1.474;2023-02-01T21:47:40;638.10;;;581.55;;
31974;SDS011;18500;43.618;1.474;2023-02-01T21:50:08;656.10;;;603.33;;
31974;SDS011;18500;43.618;1.474;2023-02-01T21:52:38;637.22;;;582.50;;
31974;SDS011;18500;43.618;1.474;2023-02-01T21:55:03;717.25;;;655.38;;
31974;SDS011;18500;43.618;1.474;2023-02-01T21:57:31;818.13;;;750.25;;
31974;SDS011;18500;43.618;1.474;2023-02-01T21:59:57;965.42;;;878.85;;
31974;SDS011;18500;43.618;1.474;2023-02-01T22:02:22;827.22;;;756.53;;
31974;SDS011;18500;43.618;1.474;2023-02-01T22:04:48;776.05;;;715.10;;
31974;SDS011;18500;43.618;1.474;2023-02-01T22:07:14;884.15;;;805.45;;
31974;SDS011;18500;43.618;1.474;2023-02-01T22:09:40;802.10;;;730.63;;